KADM/ADM METAR and TAF weather

Enter ICAO airport designator
Station Type Date Time Source
KADM METAR 2020/01/20 12:55 UTC NOAA

KADM 201255Z 01004KT 10SM CLR M04/M04 A3060


Station Type Date Time Source
KADM Decoded METAR 2020/01/20 12:55 UTC NOAA

Ardmore, Ardmore Municipal Airport, OK, United States (KADM) 34-18-11N 097-01-10W
Jan 20, 2020 - 07:55 AM EST / 2020.01.20 1255 UTC
Wind: from the N (010 degrees) at 5 MPH (4 KT):0
Visibility: 10 mile(s):0
Sky conditions: clear
Temperature: 24 F (-4 C)
Windchill: 17 F (-8 C):1
Dew Point: 24 F (-4 C)
Relative Humidity: 100%
Pressure (altimeter): 30.6 in. Hg (1036 hPa)
ob: KADM 201255Z 01004KT 10SM CLR M04/M04 A3060
cycle: 13

Station Type Date Time Source
KADM TAF UTC NOAA

Error!

Example: see airport list